createdAt,value
2023-04-16T00:01:17.073Z,40.74
2023-04-16T00:06:18.143Z,40.82
2023-04-16T00:08:46.209Z,40.88
2023-04-16T00:11:14.383Z,40.90
2023-04-16T00:13:42.374Z,40.97
2023-04-16T00:16:10.811Z,40.83
2023-04-16T00:23:45.695Z,40.88
2023-04-16T00:26:13.772Z,40.77
2023-04-16T00:28:43.172Z,40.86
2023-04-16T00:31:11.293Z,40.90
2023-04-16T00:33:39.541Z,40.81
2023-04-16T00:36:07.994Z,40.81
2023-04-16T00:38:35.988Z,40.75
2023-04-16T00:41:04.038Z,41.00
2023-04-16T00:43:32.113Z,40.95
2023-04-16T00:46:00.277Z,40.79
2023-04-16T00:48:28.460Z,40.83
2023-04-16T00:50:56.672Z,41.02
2023-04-16T00:53:24.667Z,40.96
2023-04-16T00:55:53.100Z,41.03
2023-04-16T00:58:21.663Z,41.01
2023-04-16T01:00:50.773Z,40.97
2023-04-16T01:03:19.028Z,40.94
2023-04-16T01:05:49.477Z,40.89
2023-04-16T01:08:18.361Z,41.10
2023-04-16T01:10:46.741Z,40.97
2023-04-16T01:13:15.014Z,40.93
2023-04-16T01:15:43.104Z,41.00
2023-04-16T01:18:18.100Z,40.89
2023-04-16T01:20:47.011Z,40.99
2023-04-16T01:23:15.719Z,41.06
2023-04-16T01:25:45.903Z,41.18
2023-04-16T01:28:13.934Z,41.08
2023-04-16T01:30:41.971Z,41.28
2023-04-16T01:33:18.338Z,41.16
2023-04-16T01:35:46.613Z,41.02
2023-04-16T01:38:16.841Z,41.24
2023-04-16T01:40:45.099Z,41.16
2023-04-16T01:43:13.699Z,41.24
2023-04-16T01:45:42.800Z,41.11
2023-04-16T01:48:13.215Z,41.13
2023-04-16T01:50:41.804Z,41.06
2023-04-16T01:53:09.889Z,41.12
2023-04-16T01:55:37.948Z,41.20
2023-04-16T01:58:08.070Z,41.28
2023-04-16T02:00:36.589Z,41.31
2023-04-16T02:03:04.975Z,41.19
2023-04-16T02:05:33.207Z,41.31
2023-04-16T02:08:01.799Z,41.46
2023-04-16T02:10:31.699Z,41.18
2023-04-16T02:12:59.978Z,41.42
2023-04-16T02:15:28.141Z,41.31
2023-04-16T02:17:57.287Z,41.27
2023-04-16T02:20:26.378Z,41.34
2023-04-16T02:22:57.180Z,41.34
2023-04-16T02:25:25.467Z,41.28
2023-04-16T02:27:55.365Z,41.29
2023-04-16T02:30:37.048Z,41.32
2023-04-16T02:33:05.839Z,41.43
2023-04-16T02:35:34.848Z,41.36
2023-04-16T02:38:04.398Z,41.45
2023-04-16T02:40:32.921Z,41.55
2023-04-16T02:43:01.408Z,41.32
2023-04-16T02:45:31.762Z,41.32
2023-04-16T02:48:01.058Z,41.35
2023-04-16T02:50:29.403Z,41.34
2023-04-16T02:52:57.578Z,41.17
2023-04-16T02:55:25.960Z,41.39
2023-04-16T02:57:54.038Z,41.43
2023-04-16T03:00:22.526Z,41.48
2023-04-16T03:02:51.164Z,41.26
2023-04-16T03:05:19.579Z,41.42
2023-04-16T03:07:48.249Z,41.51
2023-04-16T03:10:17.133Z,41.58
2023-04-16T03:12:45.127Z,41.73
2023-04-16T03:15:13.061Z,41.68
2023-04-16T03:17:41.824Z,41.99
2023-04-16T03:20:11.496Z,41.93
2023-04-16T03:22:39.867Z,42.05
2023-04-16T03:25:08.352Z,41.95
2023-04-16T03:27:36.337Z,42.06
2023-04-16T03:30:05.207Z,41.84
2023-04-16T03:32:34.299Z,42.16
2023-04-16T03:35:06.945Z,41.97
2023-04-16T03:37:35.579Z,42.03
2023-04-16T03:40:06.009Z,42.20
2023-04-16T03:42:34.071Z,42.28
2023-04-16T03:45:02.361Z,42.19
2023-04-16T03:47:30.572Z,42.33
2023-04-16T03:50:02.109Z,42.35
2023-04-16T03:52:30.162Z,42.43
2023-04-16T03:54:58.336Z,42.34
2023-04-16T03:57:28.560Z,42.34
2023-04-16T04:00:00.202Z,42.33
2023-04-16T04:02:29.203Z,42.36
2023-04-16T04:04:57.586Z,42.30
2023-04-16T04:07:25.691Z,42.23
2023-04-16T04:09:54.020Z,42.28
2023-04-16T04:12:22.271Z,42.38
2023-04-16T04:14:50.348Z,42.37
2023-04-16T04:17:18.658Z,42.36
2023-04-16T04:19:58.111Z,42.37
2023-04-16T04:22:29.332Z,42.13
2023-04-16T04:24:57.228Z,42.22
2023-04-16T04:27:27.738Z,42.13
2023-04-16T04:29:56.642Z,42.13
2023-04-16T04:32:25.867Z,41.86
2023-04-16T04:34:54.096Z,41.96
2023-04-16T04:37:22.074Z,41.77
2023-04-16T04:39:50.029Z,41.88
2023-04-16T04:42:18.693Z,41.74
2023-04-16T04:44:46.991Z,41.55
2023-04-16T04:47:15.144Z,41.46
2023-04-16T04:49:43.257Z,41.45
2023-04-16T04:52:12.040Z,41.34
2023-04-16T04:54:41.868Z,41.13
2023-04-16T04:57:10.011Z,41.04
2023-04-16T04:59:38.193Z,40.96
2023-04-16T05:02:06.610Z,40.77
2023-04-16T05:04:34.824Z,40.82
2023-04-16T05:07:03.190Z,40.63
2023-04-16T05:09:31.386Z,40.72
2023-04-16T05:11:59.471Z,40.48
2023-04-16T05:14:27.352Z,40.41
2023-04-16T05:16:55.665Z,40.24
2023-04-16T05:19:23.896Z,40.14
2023-04-16T05:21:52.173Z,40.17
2023-04-16T05:24:20.429Z,40.03
2023-04-16T05:26:48.625Z,40.10
2023-04-16T05:29:16.801Z,39.83
2023-04-16T05:31:44.973Z,39.72
2023-04-16T05:34:13.043Z,39.69
2023-04-16T05:36:41.107Z,39.68
2023-04-16T05:39:09.565Z,39.50
2023-04-16T05:41:37.778Z,39.48
2023-04-16T05:44:05.729Z,39.51
2023-04-16T05:46:33.888Z,39.44
2023-04-16T05:49:02.072Z,39.26
2023-04-16T05:51:30.053Z,39.09
2023-04-16T05:53:58.195Z,39.06
2023-04-16T05:56:27.321Z,38.94
2023-04-16T05:58:55.286Z,38.95
2023-04-16T06:01:23.470Z,38.81
2023-04-16T06:03:51.745Z,38.69
2023-04-16T06:06:19.914Z,38.51
2023-04-16T06:08:48.190Z,38.68
2023-04-16T06:11:16.278Z,38.46
2023-04-16T06:13:44.654Z,38.49
2023-04-16T06:16:12.865Z,38.38
2023-04-16T06:18:41.308Z,38.40
2023-04-16T06:21:09.380Z,38.24
2023-04-16T06:23:37.467Z,38.26
2023-04-16T06:26:05.698Z,38.28
2023-04-16T06:28:33.714Z,38.15
2023-04-16T06:31:01.901Z,38.13
2023-04-16T06:33:30.142Z,38.14
2023-04-16T06:35:58.220Z,38.12
2023-04-16T06:38:26.192Z,38.02
2023-04-16T06:40:54.365Z,37.93
2023-04-16T06:43:22.639Z,37.96
2023-04-16T06:45:50.954Z,37.90
2023-04-16T06:48:18.992Z,37.94
2023-04-16T06:50:47.053Z,37.89
2023-04-16T06:53:15.709Z,37.89
2023-04-16T06:55:43.914Z,37.80
2023-04-16T06:58:11.999Z,37.81
2023-04-16T07:00:39.965Z,37.81
2023-04-16T07:03:08.350Z,37.87
2023-04-16T07:05:36.632Z,37.78
2023-04-16T07:08:04.786Z,37.83
2023-04-16T07:10:32.878Z,37.74
2023-04-16T07:13:01.824Z,37.68
2023-04-16T07:15:29.820Z,37.57
2023-04-16T07:17:57.928Z,37.67
2023-04-16T07:20:26.173Z,37.63
2023-04-16T07:22:54.439Z,37.57
2023-04-16T07:25:22.396Z,37.58
2023-04-16T07:27:50.497Z,37.54
2023-04-16T07:30:18.768Z,37.49
2023-04-16T07:32:46.775Z,37.63
2023-04-16T07:35:14.933Z,37.53
2023-04-16T07:37:43.086Z,37.48
2023-04-16T07:40:11.623Z,37.34
2023-04-16T07:42:39.734Z,37.51
2023-04-16T07:45:08.423Z,37.38
2023-04-16T07:47:36.856Z,37.29
2023-04-16T07:50:06.103Z,37.40
2023-04-16T07:52:34.377Z,37.30
2023-04-16T07:55:02.239Z,37.27
2023-04-16T07:57:30.310Z,37.16
2023-04-16T07:59:58.391Z,37.18
2023-04-16T08:02:26.656Z,37.13
2023-04-16T08:04:54.810Z,37.03
2023-04-16T08:07:22.810Z,37.02
2023-04-16T08:09:51.706Z,37.00
2023-04-16T08:12:19.877Z,36.96
2023-04-16T08:14:48.142Z,37.13
2023-04-16T08:17:16.440Z,37.00
2023-04-16T08:19:47.591Z,36.76
2023-04-16T08:22:16.268Z,36.84
2023-04-16T08:24:44.287Z,36.73
2023-04-16T08:27:19.108Z,36.78
2023-04-16T08:29:48.682Z,36.62
2023-04-16T08:32:16.626Z,36.63
2023-04-16T08:34:44.644Z,36.68
2023-04-16T08:37:12.566Z,36.58
2023-04-16T08:39:40.561Z,36.42
2023-04-16T08:42:13.334Z,36.42
2023-04-16T08:44:43.955Z,36.33
2023-04-16T08:47:12.026Z,36.25
2023-04-16T08:49:44.998Z,36.21
2023-04-16T08:52:19.259Z,36.17
2023-04-16T08:54:58.882Z,36.07
2023-04-16T08:57:29.956Z,36.12
2023-04-16T08:59:58.125Z,36.10
2023-04-16T09:02:26.554Z,36.11
2023-04-16T09:04:55.487Z,36.04
2023-04-16T09:07:23.535Z,36.14
2023-04-16T09:09:51.513Z,35.98
2023-04-16T09:12:19.782Z,35.88
2023-04-16T09:14:49.896Z,35.78
2023-04-16T09:17:21.265Z,35.87
2023-04-16T09:19:49.426Z,35.85
2023-04-16T09:22:17.588Z,35.99
2023-04-16T09:24:45.765Z,35.91
2023-04-16T09:27:13.889Z,35.77
2023-04-16T09:29:42.328Z,35.75
2023-04-16T09:32:11.740Z,35.73
2023-04-16T09:34:59.678Z,35.73
2023-04-16T09:37:30.971Z,35.79
2023-04-16T09:40:03.809Z,35.78
2023-04-16T09:42:33.760Z,35.75
2023-04-16T09:45:05.005Z,35.75
2023-04-16T09:47:43.648Z,35.63
2023-04-16T09:50:19.137Z,35.63
2023-04-16T09:52:53.293Z,35.60
2023-04-16T09:55:29.471Z,35.67
2023-04-16T09:58:01.337Z,35.62
2023-04-16T10:00:31.362Z,35.54
2023-04-16T10:03:06.922Z,35.66
2023-04-16T10:05:35.422Z,35.44
2023-04-16T10:08:03.626Z,35.41
2023-04-16T10:10:31.760Z,35.45
2023-04-16T10:12:59.720Z,35.33
2023-04-16T10:15:27.799Z,35.41
2023-04-16T10:17:55.876Z,35.35
2023-04-16T10:20:24.150Z,35.25
2023-04-16T10:22:52.740Z,35.25
2023-04-16T10:25:21.119Z,35.23
2023-04-16T10:27:49.051Z,35.21
2023-04-16T10:30:17.206Z,35.19
2023-04-16T10:32:45.588Z,35.18
2023-04-16T10:35:19.879Z,35.07
2023-04-16T10:37:48.118Z,35.14
2023-04-16T10:40:26.634Z,35.17
2023-04-16T10:42:58.491Z,35.15
2023-04-16T10:45:29.662Z,35.06
2023-04-16T10:47:58.455Z,35.04
2023-04-16T10:50:34.703Z,34.95
2023-04-16T10:53:22.071Z,35.03
2023-04-16T10:56:26.429Z,34.99
2023-04-16T10:58:56.220Z,34.88
2023-04-16T11:01:31.487Z,34.86
2023-04-16T11:04:03.370Z,34.86
2023-04-16T11:06:32.300Z,34.85
2023-04-16T11:09:00.342Z,34.80
2023-04-16T11:11:28.392Z,34.84
2023-04-16T11:13:57.163Z,34.83
2023-04-16T11:16:26.470Z,34.83
2023-04-16T11:18:56.723Z,34.85
2023-04-16T11:21:25.405Z,34.86
2023-04-16T11:23:53.773Z,34.81
2023-04-16T11:26:28.612Z,34.81
2023-04-16T11:28:57.143Z,34.84
2023-04-16T11:31:27.401Z,34.86
2023-04-16T11:36:46.281Z,34.79
2023-04-16T11:39:14.356Z,34.77
2023-04-16T11:41:46.116Z,34.78
2023-04-16T11:44:20.736Z,34.78
2023-04-16T11:46:49.480Z,34.56
2023-04-16T11:49:17.600Z,34.80
2023-04-16T11:51:46.984Z,34.85
2023-04-16T11:54:21.282Z,34.72
2023-04-16T11:56:51.369Z,34.58
2023-04-16T11:59:23.269Z,34.67
2023-04-16T12:01:55.873Z,34.64
2023-04-16T12:07:14.334Z,34.53
2023-04-16T12:09:43.923Z,34.50
2023-04-16T12:12:31.445Z,34.56
2023-04-16T12:15:03.250Z,34.38
2023-04-16T12:17:35.346Z,34.47
2023-04-16T12:20:08.609Z,34.46
2023-04-16T12:22:40.661Z,34.57
2023-04-16T12:25:12.524Z,34.48
2023-04-16T12:27:43.468Z,34.45
2023-04-16T12:30:12.154Z,34.53
2023-04-16T12:32:41.474Z,34.48
2023-04-16T12:35:10.845Z,34.48
2023-04-16T12:37:39.331Z,34.57
2023-04-16T12:40:08.731Z,34.57
2023-04-16T12:42:36.662Z,34.49
2023-04-16T12:45:05.810Z,34.36
2023-04-16T12:47:34.140Z,34.33
2023-04-16T12:50:02.394Z,34.34
2023-04-16T12:52:31.012Z,34.25
2023-04-16T12:54:59.210Z,34.49
2023-04-16T12:57:28.937Z,34.36
2023-04-16T12:59:57.519Z,34.45
2023-04-16T13:02:26.502Z,34.45
2023-04-16T13:04:54.794Z,34.42
2023-04-16T13:07:22.849Z,34.36
2023-04-16T13:09:51.029Z,34.34
2023-04-16T13:12:18.923Z,34.50
2023-04-16T13:14:46.973Z,34.37
2023-04-16T13:17:15.459Z,34.47
2023-04-16T13:19:43.517Z,34.60
2023-04-16T13:22:11.434Z,34.56
2023-04-16T13:24:39.640Z,34.55
2023-04-16T13:27:08.650Z,34.56
2023-04-16T13:29:36.813Z,34.56
2023-04-16T13:32:05.609Z,34.64
2023-04-16T13:34:33.615Z,34.68
2023-04-16T13:37:01.795Z,34.69
2023-04-16T13:39:29.928Z,34.76
2023-04-16T13:41:58.010Z,34.85
2023-04-16T13:44:25.989Z,34.69
2023-04-16T13:46:54.063Z,34.99
2023-04-16T13:49:22.949Z,35.05
2023-04-16T13:51:51.108Z,35.15
2023-04-16T13:54:19.311Z,35.19
2023-04-16T13:56:47.360Z,35.28
2023-04-16T13:59:16.866Z,35.30
2023-04-16T14:01:45.038Z,35.53
2023-04-16T14:04:13.451Z,35.48
2023-04-16T14:06:41.690Z,35.70
2023-04-16T14:09:11.185Z,35.72
2023-04-16T14:11:39.464Z,35.67
2023-04-16T14:14:07.658Z,35.76
2023-04-16T14:16:36.165Z,35.95
2023-04-16T14:19:04.232Z,36.13
2023-04-16T14:21:32.376Z,36.17
2023-04-16T14:24:00.631Z,36.21
2023-04-16T14:26:28.718Z,36.22
2023-04-16T14:28:56.775Z,36.38
2023-04-16T14:31:25.631Z,36.55
2023-04-16T14:33:53.860Z,36.44
2023-04-16T14:36:22.029Z,36.44
2023-04-16T14:38:50.202Z,36.65
2023-04-16T14:41:18.273Z,36.46
2023-04-16T14:43:46.357Z,36.61
2023-04-16T14:46:17.932Z,36.73
2023-04-16T14:48:46.249Z,36.80
2023-04-16T14:51:14.303Z,36.89
2023-04-16T14:53:42.442Z,36.77
2023-04-16T14:56:11.121Z,36.92
2023-04-16T14:58:39.443Z,36.90
2023-04-16T15:01:07.703Z,36.87
2023-04-16T15:03:36.486Z,36.95
2023-04-16T15:06:05.921Z,36.89
2023-04-16T15:08:34.647Z,36.91
2023-04-16T15:11:02.629Z,36.98
2023-04-16T15:13:34.180Z,37.05
2023-04-16T15:16:02.644Z,36.96
2023-04-16T15:18:31.213Z,36.96
2023-04-16T15:20:59.306Z,37.16
2023-04-16T15:23:27.372Z,37.02
2023-04-16T15:25:55.575Z,37.11
2023-04-16T15:28:23.618Z,37.05
2023-04-16T15:30:52.514Z,37.12
2023-04-16T15:33:21.520Z,37.13
2023-04-16T15:35:51.642Z,37.09
2023-04-16T15:38:21.510Z,37.07
2023-04-16T15:40:49.607Z,37.27
2023-04-16T15:43:17.503Z,37.29
2023-04-16T15:45:45.695Z,37.38
2023-04-16T15:48:14.504Z,37.33
2023-04-16T15:50:42.627Z,37.22
2023-04-16T15:53:10.601Z,37.41
2023-04-16T15:55:38.780Z,37.36
2023-04-16T15:58:06.829Z,37.30
2023-04-16T16:00:34.914Z,37.32
2023-04-16T16:03:03.295Z,37.43
2023-04-16T16:05:31.465Z,37.56
2023-04-16T16:07:59.656Z,37.63
2023-04-16T16:10:27.826Z,37.65
2023-04-16T16:12:57.294Z,37.67
2023-04-16T16:15:25.891Z,37.60
2023-04-16T16:17:53.873Z,37.64
2023-04-16T16:20:22.862Z,37.73
2023-04-16T16:22:53.195Z,37.75
2023-04-16T16:25:21.571Z,37.93
2023-04-16T16:27:49.649Z,38.12
2023-04-16T16:30:17.720Z,38.09
2023-04-16T16:32:46.041Z,38.22
2023-04-16T16:35:14.156Z,38.22
2023-04-16T16:37:42.555Z,38.37
2023-04-16T16:40:11.326Z,38.35
2023-04-16T16:42:39.424Z,38.49
2023-04-16T16:45:08.304Z,38.60
2023-04-16T16:47:36.283Z,38.64
2023-04-16T16:50:06.054Z,38.79
2023-04-16T16:52:34.146Z,38.80
2023-04-16T16:55:02.538Z,38.85
2023-04-16T16:57:30.898Z,38.97
2023-04-16T16:59:59.110Z,39.00
2023-04-16T17:02:27.333Z,39.04
2023-04-16T17:04:56.033Z,39.08
2023-04-16T17:07:24.316Z,39.12
2023-04-16T17:09:52.389Z,39.22
2023-04-16T17:12:20.563Z,39.08
2023-04-16T17:14:50.621Z,39.06
2023-04-16T17:17:19.199Z,39.17
2023-04-16T17:19:47.238Z,39.29
2023-04-16T17:22:15.708Z,39.14
2023-04-16T17:24:43.794Z,39.22
2023-04-16T17:27:11.957Z,39.25
2023-04-16T17:29:39.926Z,39.16
2023-04-16T17:32:08.072Z,39.16
2023-04-16T17:34:36.290Z,39.03
2023-04-16T17:37:04.477Z,39.08
2023-04-16T17:39:32.538Z,39.17
2023-04-16T17:42:03.138Z,39.13
2023-04-16T17:44:31.327Z,39.18
2023-04-16T17:46:59.409Z,39.18
2023-04-16T17:49:27.483Z,39.02
2023-04-16T17:51:55.554Z,39.11
2023-04-16T17:54:24.789Z,39.03
2023-04-16T17:56:53.025Z,39.01
2023-04-16T17:59:22.123Z,39.09
2023-04-16T18:01:50.188Z,39.01
2023-04-16T18:04:19.126Z,38.99
2023-04-16T18:06:47.566Z,39.03
2023-04-16T18:09:15.737Z,38.92
2023-04-16T18:11:43.722Z,38.96
2023-04-16T18:14:14.125Z,39.04
2023-04-16T18:16:42.719Z,38.92
2023-04-16T18:19:11.498Z,38.92
2023-04-16T18:21:39.776Z,38.93
2023-04-16T18:24:07.961Z,38.85
2023-04-16T18:26:36.385Z,38.87
2023-04-16T18:29:05.545Z,38.88
2023-04-16T18:31:33.965Z,38.80
2023-04-16T18:44:16.242Z,38.93
2023-04-16T18:46:44.240Z,38.83
2023-04-16T18:49:12.630Z,38.81
2023-04-16T18:51:42.137Z,38.75
2023-04-16T18:54:10.207Z,38.75
2023-04-16T18:56:38.169Z,38.68
2023-04-16T19:01:42.514Z,38.78
2023-04-16T19:04:10.689Z,38.77
2023-04-16T19:06:38.867Z,38.62
2023-04-16T19:09:09.433Z,38.74
2023-04-16T19:11:39.106Z,38.75
2023-04-16T19:14:08.295Z,38.76
2023-04-16T19:16:36.380Z,38.76
2023-04-16T19:19:04.438Z,38.85
2023-04-16T19:21:32.729Z,38.90
2023-04-16T19:24:01.215Z,38.79
2023-04-16T19:26:29.167Z,38.78
2023-04-16T19:28:57.240Z,38.83
2023-04-16T19:31:26.458Z,38.73
2023-04-16T19:33:54.522Z,38.77
2023-04-16T19:36:22.592Z,38.77
2023-04-16T19:38:50.663Z,38.91
2023-04-16T19:41:18.639Z,38.88
2023-04-16T19:43:46.811Z,38.98
2023-04-16T19:46:15.679Z,38.87
2023-04-16T19:48:43.861Z,38.95
2023-04-16T19:51:11.835Z,38.99
2023-04-16T19:53:39.911Z,39.01
2023-04-16T19:56:08.038Z,38.87
2023-04-16T19:58:36.463Z,38.95
2023-04-16T20:01:09.059Z,38.88
2023-04-16T20:03:38.309Z,38.91
2023-04-16T20:06:07.952Z,38.98
2023-04-16T20:08:36.021Z,38.96
2023-04-16T20:11:04.089Z,39.04
2023-04-16T20:13:32.268Z,38.99
2023-04-16T20:16:01.498Z,39.12
2023-04-16T20:18:29.639Z,39.03
2023-04-16T20:20:57.912Z,39.12
2023-04-16T20:23:26.422Z,39.20
2023-04-16T20:25:54.471Z,39.17
2023-04-16T20:28:22.743Z,39.24
2023-04-16T20:30:51.242Z,39.15
2023-04-16T20:33:19.504Z,39.17
2023-04-16T20:35:47.673Z,39.30
2023-04-16T20:38:15.634Z,39.29
2023-04-16T20:40:45.143Z,39.28
2023-04-16T20:43:14.416Z,39.41
2023-04-16T20:45:46.091Z,39.41
2023-04-16T20:48:14.168Z,39.50
2023-04-16T20:50:42.373Z,39.43
2023-04-16T20:53:10.629Z,39.52
2023-04-16T20:55:38.703Z,39.47
2023-04-16T20:58:06.671Z,39.56
2023-04-16T21:00:34.743Z,39.47
2023-04-16T21:03:03.089Z,39.66
2023-04-16T21:05:31.297Z,39.73
2023-04-16T21:07:59.585Z,39.77
2023-04-16T21:10:27.755Z,39.72
2023-04-16T21:12:55.817Z,39.63
2023-04-16T21:15:23.794Z,39.80
2023-04-16T21:17:51.808Z,39.73
2023-04-16T21:20:20.011Z,39.74
2023-04-16T21:22:47.939Z,39.81
2023-04-16T21:25:16.076Z,39.74
2023-04-16T21:27:44.039Z,39.85
2023-04-16T21:30:12.935Z,39.85
2023-04-16T21:32:40.943Z,39.73
2023-04-16T21:35:09.700Z,39.88
2023-04-16T21:37:37.869Z,39.91
2023-04-16T21:40:06.720Z,39.80
2023-04-16T21:42:39.870Z,40.00
2023-04-16T21:45:11.112Z,40.00
2023-04-16T21:47:39.267Z,39.91
2023-04-16T21:50:08.356Z,39.84
2023-04-16T21:52:40.722Z,40.01
2023-04-16T21:55:09.844Z,40.05
2023-04-16T21:57:37.927Z,40.05
2023-04-16T22:00:14.351Z,39.87
2023-04-16T22:02:43.028Z,40.05
2023-04-16T22:05:11.760Z,40.09
2023-04-16T22:07:39.923Z,40.15
2023-04-16T22:10:08.920Z,39.98
2023-04-16T22:12:40.001Z,40.04
2023-04-16T22:15:09.231Z,40.15
2023-04-16T22:17:37.554Z,40.05
2023-04-16T22:20:08.276Z,40.14
2023-04-16T22:22:36.458Z,40.09
2023-04-16T22:25:05.174Z,40.05
2023-04-16T22:27:33.925Z,40.21
2023-04-16T22:30:02.989Z,40.28
2023-04-16T22:32:31.095Z,40.12
2023-04-16T22:34:59.364Z,40.40
2023-04-16T22:37:27.419Z,40.29
2023-04-16T22:39:55.465Z,40.25
2023-04-16T22:42:24.254Z,40.23
2023-04-16T22:44:52.264Z,40.18
2023-04-16T22:47:21.654Z,40.32
2023-04-16T22:49:50.454Z,40.36
2023-04-16T22:52:18.434Z,40.41
2023-04-16T22:54:46.582Z,40.37
2023-04-16T22:57:14.565Z,40.41
2023-04-16T22:59:42.599Z,40.30
2023-04-16T23:02:10.639Z,40.44
2023-04-16T23:04:38.559Z,40.38
2023-04-16T23:07:06.537Z,40.54
2023-04-16T23:09:34.717Z,40.31
2023-04-16T23:12:03.303Z,40.42
2023-04-16T23:14:31.575Z,40.43
2023-04-16T23:16:59.766Z,40.53
2023-04-16T23:19:27.926Z,40.61
2023-04-16T23:21:56.189Z,40.43
2023-04-16T23:24:24.287Z,40.47
2023-04-16T23:26:52.972Z,40.55
2023-04-16T23:29:21.137Z,40.62
2023-04-16T23:31:49.134Z,40.70
2023-04-16T23:34:17.376Z,40.60
2023-04-16T23:36:46.295Z,40.60
2023-04-16T23:39:14.452Z,40.59
2023-04-16T23:44:16.631Z,40.65
2023-04-16T23:46:44.867Z,40.75
2023-04-16T23:49:13.366Z,40.76
2023-04-16T23:51:41.684Z,40.75
2023-04-16T23:54:09.982Z,40.77
2023-04-16T23:56:38.056Z,40.68
2023-04-16T23:59:06.285Z,40.59
